createdAt,value
2016-11-15T00:00:46.604Z,0
2016-11-15T00:01:46.987Z,0
2016-11-15T00:02:47.929Z,0
2016-11-15T00:03:47.461Z,0
2016-11-15T00:04:47.460Z,0
2016-11-15T00:05:47.114Z,0
2016-11-15T00:06:47.760Z,0
2016-11-15T00:07:47.229Z,0
2016-11-15T00:08:46.987Z,0
2016-11-15T00:09:47.053Z,0
2016-11-15T00:10:46.837Z,0
2016-11-15T00:11:47.278Z,0
2016-11-15T00:12:47.313Z,0
2016-11-15T00:13:46.253Z,0
2016-11-15T00:14:47.643Z,0
2016-11-15T00:15:47.141Z,0
2016-11-15T00:16:47.372Z,0
2016-11-15T00:17:46.660Z,0
2016-11-15T00:18:45.011Z,0
2016-11-15T00:19:47.501Z,0
2016-11-15T00:20:46.216Z,0
2016-11-15T00:21:46.376Z,0
2016-11-15T00:22:46.550Z,0
2016-11-15T00:23:46.725Z,0
2016-11-15T00:24:44.976Z,0
2016-11-15T00:25:45.716Z,0
2016-11-15T00:26:46.525Z,0
2016-11-15T00:27:44.924Z,0
2016-11-15T00:29:00.585Z,0
2016-11-15T00:29:45.261Z,0
2016-11-15T00:30:46.350Z,0
2016-11-15T00:31:46.636Z,0
2016-11-15T00:32:46.179Z,0
2016-11-15T00:33:46.315Z,0
2016-11-15T00:34:47.430Z,0
2016-11-15T00:36:00.803Z,0
2016-11-15T00:36:46.876Z,0
2016-11-15T00:37:46.852Z,0
2016-11-15T00:38:46.550Z,0
2016-11-15T00:39:45.774Z,0
2016-11-15T00:40:46.003Z,0
2016-11-15T00:41:45.994Z,0
2016-11-15T00:42:43.895Z,0
2016-11-15T00:43:44.156Z,0
2016-11-15T00:44:43.506Z,0
2016-11-15T00:45:44.369Z,0
2016-11-15T00:46:44.023Z,0
2016-11-15T00:47:43.991Z,0
2016-11-15T00:48:43.955Z,0
2016-11-15T00:49:43.600Z,0
2016-11-15T00:50:43.865Z,0
2016-11-15T00:51:43.815Z,0
2016-11-15T00:52:43.776Z,0
2016-11-15T00:53:44.039Z,0
2016-11-15T00:54:43.392Z,0
2016-11-15T00:55:43.049Z,0
2016-11-15T00:56:43.920Z,0
2016-11-15T00:57:43.305Z,0
2016-11-15T00:58:43.523Z,0
2016-11-15T00:59:43.185Z,0
2016-11-15T01:00:43.758Z,0
2016-11-15T01:01:43.715Z,0
2016-11-15T01:02:43.666Z,0
2016-11-15T01:03:43.621Z,0
2016-11-15T01:04:43.584Z,0
2016-11-15T01:05:43.544Z,0
2016-11-15T01:06:42.894Z,0
2016-11-15T01:07:43.158Z,0
2016-11-15T01:08:43.425Z,0
2016-11-15T01:09:42.775Z,0
2016-11-15T01:10:43.039Z,0
2016-11-15T01:11:43.302Z,0
2016-11-15T01:12:42.644Z,0
2016-11-15T01:13:42.907Z,0
2016-11-15T01:14:42.563Z,0
2016-11-15T01:15:42.821Z,0
2016-11-15T01:16:42.480Z,0
2016-11-15T01:17:42.472Z,0
2016-11-15T01:18:41.791Z,0
2016-11-15T01:19:42.956Z,0
2016-11-15T01:20:42.921Z,0
2016-11-15T01:21:42.292Z,0
2016-11-15T01:22:42.532Z,0
2016-11-15T01:23:42.195Z,0
2016-11-15T01:24:42.446Z,0
2016-11-15T01:25:42.707Z,0
2016-11-15T01:26:42.669Z,0
2016-11-15T01:27:42.326Z,0
2016-11-15T01:28:42.281Z,0
2016-11-15T01:29:42.247Z,0
2016-11-15T01:30:42.208Z,0
2016-11-15T01:31:42.157Z,0
2016-11-15T01:32:41.821Z,0
2016-11-15T01:33:41.769Z,0
2016-11-15T01:34:42.333Z,0
2016-11-15T01:35:41.992Z,0
2016-11-15T01:36:42.253Z,0
2016-11-15T01:37:41.914Z,0
2016-11-15T01:38:41.863Z,0
2016-11-15T01:39:41.826Z,0
2016-11-15T01:40:41.779Z,0
2016-11-15T01:41:42.046Z,0
2016-11-15T01:42:42.001Z,0
2016-11-15T01:43:41.956Z,0
2016-11-15T01:44:41.616Z,0
2016-11-15T01:45:41.875Z,0
2016-11-15T01:46:41.534Z,0
2016-11-15T01:47:41.497Z,0
2016-11-15T01:48:41.752Z,0
2016-11-15T01:49:41.711Z,0
2016-11-15T01:50:41.676Z,0
2016-11-15T01:51:41.676Z,0
2016-11-15T01:52:41.587Z,0
2016-11-15T01:53:41.543Z,0
2016-11-15T01:54:41.207Z,0
2016-11-15T01:55:41.159Z,0
2016-11-15T01:56:40.823Z,0
2016-11-15T01:57:41.415Z,0
2016-11-15T01:58:41.037Z,0
2016-11-15T01:59:40.999Z,0
2016-11-15T02:00:41.274Z,0
2016-11-15T02:01:40.609Z,0
2016-11-15T02:02:40.868Z,0
2016-11-15T02:03:40.833Z,0
2016-11-15T02:04:41.093Z,0
2016-11-15T02:05:41.047Z,0
2016-11-15T02:06:40.704Z,0
2016-11-15T02:07:40.992Z,0
2016-11-15T02:08:40.020Z,0
2016-11-15T02:09:40.581Z,0
2016-11-15T02:10:40.242Z,0
2016-11-15T02:11:40.502Z,0
2016-11-15T02:12:40.458Z,0
2016-11-15T02:13:40.748Z,0
2016-11-15T02:14:40.685Z,0
2016-11-15T02:15:40.332Z,0
2016-11-15T02:16:40.596Z,0
2016-11-15T02:17:40.247Z,0
2016-11-15T02:18:40.516Z,0
2016-11-15T02:19:40.468Z,0
2016-11-15T02:20:40.132Z,0
2016-11-15T02:21:40.381Z,0
2016-11-15T02:22:40.042Z,0
2016-11-15T02:23:40.001Z,0
2016-11-15T02:24:40.265Z,0
2016-11-15T02:25:40.223Z,0
2016-11-15T02:26:39.880Z,0
2016-11-15T02:27:39.831Z,0
2016-11-15T02:28:39.790Z,0
2016-11-15T02:29:39.441Z,0
2016-11-15T02:30:39.406Z,0
2016-11-15T02:31:39.987Z,0
2016-11-15T02:32:39.627Z,0
2016-11-15T02:33:39.889Z,0
2016-11-15T02:34:39.550Z,0
2016-11-15T02:35:38.897Z,0
2016-11-15T02:36:39.758Z,0
2016-11-15T02:37:39.415Z,0
2016-11-15T02:38:39.677Z,0
2016-11-15T02:39:39.338Z,0
2016-11-15T02:40:39.598Z,0
2016-11-15T02:41:39.552Z,0
2016-11-15T02:42:39.210Z,0
2016-11-15T02:43:39.163Z,0
2016-11-15T02:44:39.132Z,0
2016-11-15T02:45:38.797Z,0
2016-11-15T02:46:39.348Z,0
2016-11-15T02:47:39.342Z,0
2016-11-15T02:48:39.282Z,0
2016-11-15T02:49:38.916Z,0
2016-11-15T02:50:38.884Z,0
2016-11-15T02:51:39.142Z,0
2016-11-15T02:52:38.793Z,0
2016-11-15T02:53:39.055Z,0
2016-11-15T02:54:38.707Z,0
2016-11-15T02:55:38.662Z,0
2016-11-15T02:56:38.630Z,0
2016-11-15T02:57:38.584Z,0
2016-11-15T02:58:38.844Z,0
2016-11-15T02:59:38.500Z,0
2016-11-15T03:00:38.762Z,0
2016-11-15T03:01:38.728Z,0
2016-11-15T03:02:38.379Z,0
2016-11-15T03:03:38.035Z,0
2016-11-15T03:04:38.601Z,0
2016-11-15T03:05:38.558Z,0
2016-11-15T03:06:38.513Z,0
2016-11-15T03:07:38.199Z,0
2016-11-15T03:08:38.432Z,0
2016-11-15T03:09:37.790Z,0
2016-11-15T03:10:37.746Z,0
2016-11-15T03:11:37.999Z,0
2016-11-15T03:12:38.269Z,0
2016-11-15T03:13:37.916Z,0
2016-11-15T03:14:38.189Z,0
2016-11-15T03:15:37.836Z,0
2016-11-15T03:16:37.824Z,0
2016-11-15T03:17:37.492Z,0
2016-11-15T03:18:37.713Z,0
2016-11-15T03:19:37.974Z,0
2016-11-15T03:20:37.627Z,0
2016-11-15T03:21:37.920Z,0
2016-11-15T03:22:37.857Z,0
2016-11-15T03:23:37.507Z,0
2016-11-15T03:24:37.806Z,0
2016-11-15T03:25:37.728Z,0
2016-11-15T03:26:37.077Z,0
2016-11-15T03:27:37.341Z,0
2016-11-15T03:28:37.673Z,0
2016-11-15T03:29:37.312Z,0
2016-11-15T03:30:37.521Z,0
2016-11-15T03:31:37.176Z,0
2016-11-15T03:32:37.132Z,0
2016-11-15T03:33:37.091Z,0
2016-11-15T03:34:37.349Z,0
2016-11-15T03:35:37.309Z,0
2016-11-15T03:36:36.969Z,0
2016-11-15T03:37:36.927Z,0
2016-11-15T03:38:37.186Z,0
2016-11-15T03:39:36.540Z,0
2016-11-15T03:40:36.798Z,0
2016-11-15T03:41:36.454Z,0
2016-11-15T03:42:36.728Z,0
2016-11-15T03:43:36.708Z,0
2016-11-15T03:44:36.631Z,0
2016-11-15T03:45:36.602Z,0
2016-11-15T03:46:36.550Z,0
2016-11-15T03:47:36.561Z,0
2016-11-15T03:48:36.815Z,0
2016-11-15T03:49:36.769Z,0
2016-11-15T03:50:36.390Z,0
2016-11-15T03:51:35.742Z,0
2016-11-15T03:52:36.603Z,0
2016-11-15T03:53:35.965Z,0
2016-11-15T03:54:36.518Z,0
2016-11-15T03:55:36.179Z,0
2016-11-15T03:56:35.833Z,0
2016-11-15T03:57:36.097Z,0
2016-11-15T03:58:36.059Z,0
2016-11-15T03:59:35.731Z,0
2016-11-15T04:00:35.973Z,0
2016-11-15T04:01:36.239Z,0
2016-11-15T04:02:35.580Z,0
2016-11-15T04:03:36.190Z,0
2016-11-15T04:04:35.806Z,0
2016-11-15T04:05:35.763Z,0
2016-11-15T04:06:35.732Z,0
2016-11-15T04:07:35.382Z,0
2016-11-15T04:08:35.937Z,0
2016-11-15T04:09:35.602Z,0
2016-11-15T04:10:35.285Z,0
2016-11-15T04:11:34.912Z,0
2016-11-15T04:12:35.488Z,0
2016-11-15T04:13:35.132Z,0
2016-11-15T04:14:35.389Z,0
2016-11-15T04:15:35.653Z,0
2016-11-15T04:16:35.608Z,0
2016-11-15T04:17:34.962Z,0
2016-11-15T04:18:35.262Z,0
2016-11-15T04:19:35.192Z,0
2016-11-15T04:20:35.144Z,0
2016-11-15T04:21:35.103Z,0
2016-11-15T04:22:34.755Z,0
2016-11-15T04:23:35.024Z,0
2016-11-15T04:24:35.279Z,0
2016-11-15T04:25:34.631Z,0
2016-11-15T04:26:34.899Z,0
2016-11-15T04:27:35.191Z,0
2016-11-15T04:28:35.112Z,0
2016-11-15T04:29:34.764Z,0
2016-11-15T04:30:35.060Z,0
2016-11-15T04:31:34.390Z,0
2016-11-15T04:32:34.946Z,0
2016-11-15T04:33:34.604Z,0
2016-11-15T04:34:34.265Z,0
2016-11-15T04:35:34.824Z,0
2016-11-15T04:36:34.480Z,0
2016-11-15T04:37:34.741Z,0
2016-11-15T04:38:34.701Z,0
2016-11-15T04:39:34.358Z,0
2016-11-15T04:40:34.316Z,0
2016-11-15T04:41:34.291Z,0
2016-11-15T04:42:34.235Z,0
2016-11-15T04:43:33.887Z,0
2016-11-15T04:44:34.450Z,0
2016-11-15T04:45:34.407Z,0
2016-11-15T04:46:34.066Z,0
2016-11-15T04:47:34.332Z,0
2016-11-15T04:48:34.287Z,0
2016-11-15T04:49:34.248Z,0
2016-11-15T04:50:33.910Z,0
2016-11-15T04:51:33.562Z,0
2016-11-15T04:52:34.123Z,0
2016-11-15T04:53:33.789Z,0
2016-11-15T04:54:33.736Z,0
2016-11-15T04:55:33.394Z,0
2016-11-15T04:56:33.648Z,0
2016-11-15T04:57:33.917Z,0
2016-11-15T04:58:33.568Z,0
2016-11-15T04:59:33.226Z,0
2016-11-15T05:00:33.488Z,0
2016-11-15T05:01:33.751Z,0
2016-11-15T05:02:33.404Z,0
2016-11-15T05:03:33.668Z,0
2016-11-15T05:04:33.325Z,0
2016-11-15T05:05:33.625Z,0
2016-11-15T05:06:33.267Z,0
2016-11-15T05:07:33.494Z,0
2016-11-15T05:08:33.493Z,0
2016-11-15T05:09:33.112Z,0
2016-11-15T05:10:33.384Z,0
2016-11-15T05:11:33.037Z,0
2016-11-15T05:12:33.293Z,0
2016-11-15T05:13:33.247Z,0
2016-11-15T05:14:33.221Z,0
2016-11-15T05:15:32.870Z,0
2016-11-15T05:16:32.537Z,0
2016-11-15T05:17:32.484Z,0
2016-11-15T05:18:32.442Z,0
2016-11-15T05:19:32.699Z,0
2016-11-15T05:20:33.006Z,0
2016-11-15T05:21:32.323Z,0
2016-11-15T05:22:32.273Z,0
2016-11-15T05:23:32.548Z,0
2016-11-15T05:24:32.241Z,0
2016-11-15T05:25:31.552Z,0
2016-11-15T05:26:32.415Z,0
2016-11-15T05:27:32.374Z,0
2016-11-15T05:28:32.331Z,0
2016-11-15T05:29:31.686Z,0
2016-11-15T05:30:31.945Z,0
2016-11-15T05:31:32.212Z,0
2016-11-15T05:32:32.497Z,0
2016-11-15T05:33:32.118Z,0
2016-11-15T05:34:32.395Z,0
2016-11-15T05:35:32.336Z,0
2016-11-15T05:36:32.302Z,0
2016-11-15T05:37:32.262Z,0
2016-11-15T05:38:31.612Z,0
2016-11-15T05:39:31.878Z,0
2016-11-15T05:40:32.148Z,0
2016-11-15T05:41:31.790Z,0
2016-11-15T05:42:32.049Z,0
2016-11-15T05:43:31.715Z,0
2016-11-15T05:44:31.971Z,0
2016-11-15T05:45:31.358Z,0
2016-11-15T05:46:31.891Z,0
2016-11-15T05:47:31.546Z,0
2016-11-15T05:48:31.202Z,0
2016-11-15T05:49:31.763Z,0
2016-11-15T05:50:31.742Z,0
2016-11-15T05:51:31.708Z,0
2016-11-15T05:52:31.035Z,0
2016-11-15T05:53:31.609Z,0
2016-11-15T05:54:31.566Z,0
2016-11-15T05:55:31.215Z,0
2016-11-15T05:56:31.177Z,0
2016-11-15T05:57:31.437Z,0
2016-11-15T05:58:31.393Z,0
2016-11-15T05:59:31.354Z,0
2016-11-15T06:00:31.008Z,0
2016-11-15T06:01:30.971Z,0
2016-11-15T06:02:30.922Z,0
2016-11-15T06:03:30.580Z,0
2016-11-15T06:04:30.842Z,0
2016-11-15T06:05:30.498Z,0
2016-11-15T06:06:30.458Z,0
2016-11-15T06:07:30.713Z,0
2016-11-15T06:08:30.676Z,0
2016-11-15T06:09:30.339Z,0
2016-11-15T06:10:30.904Z,0
2016-11-15T06:11:30.853Z,0
2016-11-15T06:12:30.821Z,0
2016-11-15T06:13:30.776Z,0
2016-11-15T06:14:30.729Z,0
2016-11-15T06:15:30.092Z,0
2016-11-15T06:16:30.830Z,0
2016-11-15T06:17:30.314Z,0
2016-11-15T06:18:29.657Z,0
2016-11-15T06:19:30.224Z,0
2016-11-15T06:20:30.174Z,0
2016-11-15T06:21:30.442Z,0
2016-11-15T06:22:30.094Z,0
2016-11-15T06:23:29.759Z,0
2016-11-15T06:24:30.009Z,0
2016-11-15T06:25:30.299Z,0
2016-11-15T06:26:29.929Z,0
2016-11-15T06:27:29.890Z,0
2016-11-15T06:28:29.545Z,0
2016-11-15T06:29:29.803Z,0
2016-11-15T06:30:29.767Z,0
2016-11-15T06:31:30.028Z,0
2016-11-15T06:32:29.982Z,0
2016-11-15T06:33:29.978Z,5
2016-11-15T06:34:29.602Z,5
2016-11-15T06:35:29.561Z,5
2016-11-15T06:36:29.212Z,5
2016-11-15T06:37:29.174Z,5
2016-11-15T06:38:29.128Z,5
2016-11-15T06:39:29.390Z,5
2016-11-15T06:40:29.065Z,5
2016-11-15T06:41:29.613Z,5
2016-11-15T06:42:29.572Z,5
2016-11-15T06:43:29.228Z,5
2016-11-15T06:44:29.483Z,5
2016-11-15T06:45:29.146Z,5
2016-11-15T06:46:29.406Z,10
2016-11-15T06:47:29.062Z,10
2016-11-15T06:48:29.019Z,10
2016-11-15T06:49:28.980Z,10
2016-11-15T06:50:28.632Z,10
2016-11-15T06:51:29.210Z,10
2016-11-15T06:52:28.853Z,10
2016-11-15T06:53:29.120Z,10
2016-11-15T06:54:28.473Z,15
2016-11-15T06:55:28.433Z,15
2016-11-15T06:56:28.989Z,15
2016-11-15T06:57:28.687Z,15
2016-11-15T06:58:28.906Z,15
2016-11-15T06:59:27.964Z,15
2016-11-15T07:00:28.525Z,15
2016-11-15T07:01:28.781Z,15
2016-11-15T07:02:28.168Z,15
2016-11-15T07:03:28.700Z,20
2016-11-15T07:04:28.357Z,20
2016-11-15T07:05:28.013Z,20
2016-11-15T07:06:28.585Z,20
2016-11-15T07:07:28.231Z,20
2016-11-15T07:08:28.218Z,20
2016-11-15T07:09:27.857Z,20
2016-11-15T07:10:28.111Z,25
2016-11-15T07:11:28.379Z,25
2016-11-15T07:12:28.325Z,25
2016-11-15T07:13:28.285Z,25
2016-11-15T07:14:27.944Z,25
2016-11-15T07:15:27.904Z,25
2016-11-15T07:16:27.863Z,25
2016-11-15T07:17:27.821Z,25
2016-11-15T07:18:27.773Z,25
2016-11-15T07:19:26.831Z,30
2016-11-15T07:20:27.994Z,30
2016-11-15T07:21:27.655Z,30
2016-11-15T07:22:27.309Z,30
2016-11-15T07:23:26.993Z,30
2016-11-15T07:24:27.528Z,35
2016-11-15T07:25:27.486Z,35
2016-11-15T07:26:26.537Z,35
2016-11-15T07:27:27.411Z,35
2016-11-15T07:28:26.765Z,40
2016-11-15T07:29:27.362Z,40
2016-11-15T07:30:27.278Z,40
2016-11-15T07:31:26.943Z,45
2016-11-15T07:32:27.199Z,45
2016-11-15T07:33:27.160Z,45
2016-11-15T07:34:27.117Z,45
2016-11-15T07:35:27.076Z,45
2016-11-15T07:36:27.336Z,45
2016-11-15T07:37:27.289Z,45
2016-11-15T07:38:27.278Z,50
2016-11-15T07:39:27.201Z,50
2016-11-15T07:40:27.573Z,55
2016-11-15T07:41:27.134Z,55
2016-11-15T07:42:26.511Z,60
2016-11-15T07:43:26.747Z,60
2016-11-15T07:44:26.996Z,60
2016-11-15T07:45:26.673Z,65
2016-11-15T07:46:26.321Z,65
2016-11-15T07:47:26.576Z,70
2016-11-15T07:48:26.539Z,75
2016-11-15T07:49:26.802Z,80
2016-11-15T07:50:26.764Z,85
2016-11-15T07:51:26.718Z,90
2016-11-15T07:52:26.080Z,100
2016-11-15T07:53:26.640Z,110
2016-11-15T07:54:25.995Z,110
2016-11-15T07:55:26.555Z,110
2016-11-15T07:56:26.532Z,110
2016-11-15T07:57:26.176Z,120
2016-11-15T07:58:26.437Z,130
2016-11-15T07:59:26.105Z,140
2016-11-15T08:00:26.054Z,155
2016-11-15T08:01:26.014Z,170
2016-11-15T08:02:26.267Z,185
2016-11-15T08:03:26.245Z,190
2016-11-15T08:04:25.899Z,190
2016-11-15T08:05:25.543Z,190
2016-11-15T08:06:26.107Z,195
2016-11-15T08:07:26.072Z,195
2016-11-15T08:08:25.456Z,215
2016-11-15T08:09:25.690Z,230
2016-11-15T08:10:25.949Z,240
2016-11-15T08:11:25.607Z,255
2016-11-15T08:12:25.871Z,265
2016-11-15T08:13:25.537Z,280
2016-11-15T08:14:25.495Z,305
2016-11-15T08:15:25.749Z,355
2016-11-15T08:16:25.407Z,375
2016-11-15T08:17:25.369Z,405
2016-11-15T08:18:24.728Z,505
2016-11-15T08:19:25.290Z,630
2016-11-15T08:20:25.279Z,690
2016-11-15T08:21:25.214Z,695
2016-11-15T08:22:25.169Z,705
2016-11-15T08:23:25.140Z,705
2016-11-15T08:24:25.407Z,665
2016-11-15T08:25:25.360Z,415
2016-11-15T08:26:25.332Z,355
2016-11-15T08:27:25.291Z,340
2016-11-15T08:28:24.961Z,345
2016-11-15T08:29:24.911Z,270
2016-11-15T08:30:24.569Z,245
2016-11-15T08:31:24.840Z,265
2016-11-15T08:32:24.500Z,275
2016-11-15T08:33:24.761Z,290
2016-11-15T08:34:24.729Z,280
2016-11-15T08:35:25.008Z,270
2016-11-15T08:36:24.665Z,270
2016-11-15T08:37:24.014Z,285
2016-11-15T08:38:24.584Z,330
2016-11-15T08:39:24.547Z,285
2016-11-15T08:40:24.819Z,265
2016-11-15T08:41:24.485Z,235
2016-11-15T08:42:24.744Z,235
2016-11-15T08:43:24.409Z,230
2016-11-15T08:44:24.379Z,225
2016-11-15T08:45:24.341Z,225
2016-11-15T08:46:24.298Z,210
2016-11-15T08:47:24.570Z,200
2016-11-15T08:48:24.529Z,175
2016-11-15T08:49:24.186Z,175
2016-11-15T08:50:24.452Z,180
2016-11-15T08:51:23.815Z,180
2016-11-15T08:52:24.389Z,190
2016-11-15T08:53:24.038Z,200
2016-11-15T08:54:24.304Z,185
2016-11-15T08:55:23.974Z,190
2016-11-15T08:56:24.225Z,190
2016-11-15T08:57:23.892Z,180
2016-11-15T08:58:23.550Z,180
2016-11-15T08:59:24.116Z,180
2016-11-15T09:00:23.784Z,185
2016-11-15T09:01:23.744Z,190
2016-11-15T09:02:23.697Z,205
2016-11-15T09:03:23.661Z,200
2016-11-15T09:04:23.756Z,210
2016-11-15T09:05:23.914Z,230
2016-11-15T09:06:23.553Z,275
2016-11-15T09:07:23.514Z,290
2016-11-15T09:08:23.781Z,350
2016-11-15T09:09:23.747Z,460
2016-11-15T09:10:23.406Z,385
2016-11-15T09:11:23.071Z,430
2016-11-15T09:12:23.626Z,395
2016-11-15T09:13:23.586Z,515
2016-11-15T09:14:23.244Z,440
2016-11-15T09:15:22.916Z,450
2016-11-15T09:16:23.173Z,435
2016-11-15T09:17:23.446Z,415
2016-11-15T09:18:22.806Z,385
2016-11-15T09:19:23.067Z,365
2016-11-15T09:20:23.038Z,385
2016-11-15T09:21:22.688Z,615
2016-11-15T09:22:22.950Z,340
2016-11-15T09:23:22.308Z,345
2016-11-15T09:24:22.883Z,310
2016-11-15T09:25:22.851Z,295
2016-11-15T09:26:23.110Z,285
2016-11-15T09:27:22.776Z,300
2016-11-15T09:28:23.027Z,330
2016-11-15T09:29:22.693Z,305
2016-11-15T09:30:22.663Z,295
2016-11-15T09:31:22.336Z,275
2016-11-15T09:32:22.589Z,275
2016-11-15T09:33:22.853Z,275
2016-11-15T09:34:22.220Z,270
2016-11-15T09:35:22.474Z,265
2016-11-15T09:36:22.438Z,265
2016-11-15T09:37:22.701Z,270
2016-11-15T09:38:22.394Z,315
2016-11-15T09:39:22.628Z,325
2016-11-15T09:40:22.311Z,330
2016-11-15T09:41:22.561Z,365
2016-11-15T09:42:22.221Z,410
2016-11-15T09:43:22.190Z,635
2016-11-15T09:44:22.659Z,800
2016-11-15T09:45:21.810Z,615
2016-11-15T09:46:22.069Z,1120
2016-11-15T09:47:21.739Z,1205
2016-11-15T09:48:21.999Z,720
2016-11-15T09:49:21.968Z,800
2016-11-15T09:50:21.933Z,575
2016-11-15T09:51:21.888Z,425
2016-11-15T09:52:22.170Z,345
2016-11-15T09:53:22.126Z,305
2016-11-15T09:54:21.790Z,295
2016-11-15T09:55:22.063Z,265
2016-11-15T09:56:21.724Z,250
2016-11-15T09:57:21.986Z,240
2016-11-15T09:58:21.053Z,230
2016-11-15T09:59:21.924Z,230
2016-11-15T10:00:21.885Z,235
2016-11-15T10:01:21.861Z,240
2016-11-15T10:02:21.818Z,240
2016-11-15T10:03:21.185Z,240
2016-11-15T10:04:21.142Z,240
2016-11-15T10:05:21.413Z,245
2016-11-15T10:06:21.391Z,255
2016-11-15T10:07:21.385Z,265
2016-11-15T10:08:21.303Z,280
2016-11-15T10:09:21.272Z,300
2016-11-15T10:10:20.939Z,305
2016-11-15T10:11:21.516Z,320
2016-11-15T10:12:20.869Z,350
2016-11-15T10:13:21.130Z,360
2016-11-15T10:14:21.100Z,480
2016-11-15T10:15:20.766Z,790
2016-11-15T10:16:20.727Z,810
2016-11-15T10:17:20.991Z,915
2016-11-15T10:18:21.261Z,695
2016-11-15T10:19:21.218Z,630
2016-11-15T10:20:21.193Z,880
2016-11-15T10:21:21.148Z,1150
2016-11-15T10:22:20.825Z,1170
2016-11-15T10:23:21.116Z,880
2016-11-15T10:24:20.745Z,690
2016-11-15T10:25:20.710Z,785
2016-11-15T10:26:20.998Z,580
2016-11-15T10:27:20.351Z,545
2016-11-15T10:28:20.908Z,460
2016-11-15T10:29:20.881Z,410
2016-11-15T10:30:20.251Z,390
2016-11-15T10:31:20.519Z,380
2016-11-15T10:32:20.809Z,370
2016-11-15T10:33:20.448Z,370
2016-11-15T10:34:20.111Z,365
2016-11-15T10:35:20.680Z,365
2016-11-15T10:36:20.652Z,360
2016-11-15T10:37:20.323Z,360
2016-11-15T10:38:20.585Z,355
2016-11-15T10:39:20.252Z,350
2016-11-15T10:40:20.220Z,350
2016-11-15T10:41:20.483Z,350
2016-11-15T10:42:20.447Z,350
2016-11-15T10:43:20.113Z,350
2016-11-15T10:44:19.776Z,345
2016-11-15T10:45:20.047Z,345
2016-11-15T10:46:20.312Z,335
2016-11-15T10:47:19.676Z,325
2016-11-15T10:48:20.255Z,325
2016-11-15T10:49:20.213Z,315
2016-11-15T10:50:19.572Z,295
2016-11-15T10:51:20.154Z,285
2016-11-15T10:52:19.504Z,290
2016-11-15T10:53:20.072Z,295
2016-11-15T10:54:19.472Z,295
2016-11-15T10:55:19.702Z,305
2016-11-15T10:56:19.366Z,295
2016-11-15T10:57:19.635Z,290
2016-11-15T10:58:19.600Z,295
2016-11-15T10:59:18.959Z,290
2016-11-15T11:00:19.225Z,285
2016-11-15T11:01:19.795Z,280
2016-11-15T11:02:19.756Z,270
2016-11-15T11:03:19.728Z,260
2016-11-15T11:04:19.385Z,250
2016-11-15T11:05:19.058Z,240
2016-11-15T11:06:18.715Z,230
2016-11-15T11:07:19.286Z,225
2016-11-15T11:08:19.545Z,220
2016-11-15T11:09:19.211Z,215
2016-11-15T11:10:19.478Z,210
2016-11-15T11:11:18.533Z,205
2016-11-15T11:12:19.413Z,205
2016-11-15T11:13:19.379Z,205
2016-11-15T11:14:18.732Z,200
2016-11-15T11:15:18.997Z,195
2016-11-15T11:16:18.971Z,195
2016-11-15T11:17:18.623Z,195
2016-11-15T11:18:19.193Z,195
2016-11-15T11:19:18.547Z,195
2016-11-15T11:20:19.121Z,200
2016-11-15T11:21:18.489Z,205
2016-11-15T11:22:19.044Z,205
2016-11-15T11:23:18.412Z,210
2016-11-15T11:24:18.981Z,215
2016-11-15T11:25:18.333Z,215
2016-11-15T11:26:18.597Z,220
2016-11-15T11:27:18.257Z,215
2016-11-15T11:28:18.825Z,215
2016-11-15T11:29:18.489Z,210
2016-11-15T11:30:18.782Z,210
2016-11-15T11:31:18.729Z,215
2016-11-15T11:32:18.080Z,225
2016-11-15T11:33:18.639Z,240
2016-11-15T11:34:18.608Z,255
2016-11-15T11:35:18.575Z,270
2016-11-15T11:36:18.230Z,285
2016-11-15T11:37:17.889Z,285
2016-11-15T11:38:18.155Z,280
2016-11-15T11:39:17.817Z,270
2016-11-15T11:40:18.108Z,265
2016-11-15T11:41:18.057Z,260
2016-11-15T11:42:17.708Z,260
2016-11-15T11:43:17.967Z,255
2016-11-15T11:44:18.238Z,250
2016-11-15T11:45:18.197Z,245
2016-11-15T11:46:17.868Z,245
2016-11-15T11:47:17.222Z,240
2016-11-15T11:48:17.814Z,235
2016-11-15T11:49:17.755Z,235
2016-11-15T11:50:17.410Z,235
2016-11-15T11:51:17.680Z,240
2016-11-15T11:52:17.953Z,245
2016-11-15T11:53:17.906Z,240
2016-11-15T11:54:17.572Z,235
2016-11-15T11:55:17.832Z,225
2016-11-15T11:56:17.507Z,215
2016-11-15T11:57:17.763Z,205
2016-11-15T11:58:17.420Z,205
2016-11-15T11:59:17.382Z,210
2016-11-15T12:00:17.348Z,225
2016-11-15T12:01:17.617Z,235
2016-11-15T12:02:16.968Z,240
2016-11-15T12:03:17.547Z,245
2016-11-15T12:04:16.909Z,240
2016-11-15T12:05:17.470Z,230
2016-11-15T12:06:17.130Z,225
2016-11-15T12:07:17.398Z,215
2016-11-15T12:08:17.358Z,210
2016-11-15T12:09:17.025Z,210
2016-11-15T12:10:17.280Z,210
2016-11-15T12:11:17.245Z,210
2016-11-15T12:12:16.905Z,210
2016-11-15T12:13:17.175Z,215
2016-11-15T12:14:17.135Z,225
2016-11-15T12:15:16.800Z,245
2016-11-15T12:16:16.462Z,250
2016-11-15T12:17:16.422Z,255
2016-11-15T12:18:16.984Z,250
2016-11-15T12:19:16.956Z,245
2016-11-15T12:20:16.307Z,235
2016-11-15T12:21:16.573Z,230
2016-11-15T12:22:16.877Z,220
2016-11-15T12:23:16.501Z,200
2016-11-15T12:24:16.764Z,190
2016-11-15T12:25:16.430Z,170
2016-11-15T12:26:16.392Z,160
2016-11-15T12:27:16.349Z,155
2016-11-15T12:28:16.625Z,160
2016-11-15T12:29:16.283Z,175
2016-11-15T12:30:16.248Z,195
2016-11-15T12:31:16.507Z,205
2016-11-15T12:32:16.170Z,220
2016-11-15T12:33:16.433Z,230
2016-11-15T12:34:16.397Z,240
2016-11-15T12:35:16.058Z,255
2016-11-15T12:36:16.395Z,255
2016-11-15T12:37:15.987Z,245
2016-11-15T12:38:16.249Z,235
2016-11-15T12:39:16.216Z,225
2016-11-15T12:40:15.270Z,210
2016-11-15T12:41:15.544Z,195
2016-11-15T12:42:15.818Z,185
2016-11-15T12:43:16.061Z,180
2016-11-15T12:44:16.041Z,170
2016-11-15T12:45:15.693Z,165
2016-11-15T12:46:15.968Z,155
2016-11-15T12:47:16.330Z,145
2016-11-15T12:48:15.879Z,135
2016-11-15T12:49:15.846Z,135
2016-11-15T12:50:15.817Z,125
2016-11-15T12:51:15.823Z,125
2016-11-15T12:52:15.427Z,120
2016-11-15T12:53:15.404Z,120
2016-11-15T12:54:15.664Z,120
2016-11-15T12:55:15.651Z,120
2016-11-15T12:56:15.589Z,115
2016-11-15T12:57:15.242Z,115
2016-11-15T12:58:15.509Z,120
2016-11-15T12:59:14.877Z,115
2016-11-15T13:00:14.849Z,115
2016-11-15T13:01:15.397Z,115
2016-11-15T13:02:14.757Z,120
2016-11-15T13:03:15.018Z,130
2016-11-15T13:04:14.679Z,130
2016-11-15T13:05:14.643Z,140
2016-11-15T13:06:14.906Z,145
2016-11-15T13:07:14.560Z,140
2016-11-15T13:08:15.139Z,135
2016-11-15T13:09:14.526Z,135
2016-11-15T13:10:14.815Z,135
2016-11-15T13:11:14.719Z,130
2016-11-15T13:12:14.976Z,145
2016-11-15T13:13:14.648Z,165
2016-11-15T13:14:14.908Z,185
2016-11-15T13:15:14.267Z,195
2016-11-15T13:16:14.527Z,200
2016-11-15T13:17:14.490Z,195
2016-11-15T13:18:14.753Z,180
2016-11-15T13:19:14.417Z,170
2016-11-15T13:20:14.669Z,165
2016-11-15T13:21:14.634Z,160
2016-11-15T13:22:13.991Z,150
2016-11-15T13:23:14.559Z,145
2016-11-15T13:24:14.530Z,135
2016-11-15T13:25:14.190Z,135
2016-11-15T13:26:14.149Z,135
2016-11-15T13:27:14.100Z,135
2016-11-15T13:28:13.772Z,140
2016-11-15T13:29:14.326Z,140
2016-11-15T13:30:13.993Z,140
2016-11-15T13:31:13.350Z,135
2016-11-15T13:32:13.911Z,130
2016-11-15T13:33:14.185Z,130
2016-11-15T13:34:13.537Z,130
2016-11-15T13:35:13.499Z,125
2016-11-15T13:36:14.058Z,120
2016-11-15T13:37:13.723Z,120
2016-11-15T13:38:13.987Z,120
2016-11-15T13:39:13.644Z,120
2016-11-15T13:40:13.908Z,115
2016-11-15T13:41:13.267Z,110
2016-11-15T13:42:13.228Z,105
2016-11-15T13:43:13.192Z,100
2016-11-15T13:44:13.458Z,95
2016-11-15T13:45:13.413Z,95
2016-11-15T13:46:13.373Z,95
2016-11-15T13:47:13.339Z,95
2016-11-15T13:48:13.599Z,95
2016-11-15T13:49:12.993Z,95
2016-11-15T13:50:13.527Z,90
2016-11-15T13:51:13.177Z,95
2016-11-15T13:52:13.152Z,95
2016-11-15T13:53:13.409Z,95
2016-11-15T13:54:13.376Z,95
2016-11-15T13:55:12.736Z,100
2016-11-15T13:56:13.304Z,100
2016-11-15T13:57:12.957Z,100
2016-11-15T13:58:13.217Z,95
2016-11-15T13:59:12.877Z,95
2016-11-15T14:00:12.836Z,95
2016-11-15T14:01:12.568Z,90
2016-11-15T14:02:13.061Z,90
2016-11-15T14:03:12.723Z,85
2016-11-15T14:04:12.681Z,80
2016-11-15T14:05:12.641Z,80
2016-11-15T14:06:12.609Z,80
2016-11-15T14:07:12.571Z,75
2016-11-15T14:08:12.824Z,75
2016-11-15T14:09:12.501Z,70
2016-11-15T14:10:12.446Z,70
2016-11-15T14:11:12.711Z,65
2016-11-15T14:12:12.381Z,65
2016-11-15T14:13:12.027Z,60
2016-11-15T14:14:12.593Z,60
2016-11-15T14:15:12.561Z,55
2016-11-15T14:16:12.218Z,50
2016-11-15T14:17:12.173Z,50